sensor_id;sensor_type;location;lat;lon;timestamp;pressure;altitude;pressure_sealevel;temperature;humidity
40612;BME280;26317;44.894;20.286;2023-04-26T00:00:18;99941.63;;;11.02;76.86
40612;BME280;26317;44.894;20.286;2023-04-26T00:03:01;99931.53;;;10.94;77.20
40612;BME280;26317;44.894;20.286;2023-04-26T00:05:34;99945.47;;;10.96;77.50
40612;BME280;26317;44.894;20.286;2023-04-26T00:08:19;99940.75;;;10.88;78.34
40612;BME280;26317;44.894;20.286;2023-04-26T00:10:53;99932.56;;;10.98;78.31
40612;BME280;26317;44.894;20.286;2023-04-26T00:13:34;99937.00;;;11.08;77.92
40612;BME280;26317;44.894;20.286;2023-04-26T00:16:23;99948.44;;;11.19;78.14
40612;BME280;26317;44.894;20.286;2023-04-26T00:19:01;99950.16;;;11.28;78.26
40612;BME280;26317;44.894;20.286;2023-04-26T00:21:39;99953.63;;;11.29;78.51
40612;BME280;26317;44.894;20.286;2023-04-26T00:24:18;99941.31;;;11.28;79.14
40612;BME280;26317;44.894;20.286;2023-04-26T00:29:43;99952.34;;;11.26;80.12
40612;BME280;26317;44.894;20.286;2023-04-26T00:32:21;99947.25;;;11.25;80.43
40612;BME280;26317;44.894;20.286;2023-04-26T00:35:01;99948.19;;;11.15;81.43
40612;BME280;26317;44.894;20.286;2023-04-26T00:37:34;99952.38;;;11.02;82.40
40612;BME280;26317;44.894;20.286;2023-04-26T00:40:09;99937.94;;;10.98;82.36
40612;BME280;26317;44.894;20.286;2023-04-26T00:42:46;99942.16;;;11.04;83.04
40612;BME280;26317;44.894;20.286;2023-04-26T00:45:35;99945.91;;;11.03;83.62
40612;BME280;26317;44.894;20.286;2023-04-26T00:48:17;99944.63;;;11.01;83.94
40612;BME280;26317;44.894;20.286;2023-04-26T00:50:57;99942.75;;;11.01;84.36
40612;BME280;26317;44.894;20.286;2023-04-26T00:53:34;99944.97;;;10.94;84.91
40612;BME280;26317;44.894;20.286;2023-04-26T00:56:11;99962.38;;;10.97;85.26
40612;BME280;26317;44.894;20.286;2023-04-26T00:58:56;99966.16;;;10.96;85.59
40612;BME280;26317;44.894;20.286;2023-04-26T01:01:32;99966.41;;;10.94;85.88
40612;BME280;26317;44.894;20.286;2023-04-26T01:04:12;99974.19;;;10.96;85.65
40612;BME280;26317;44.894;20.286;2023-04-26T01:06:49;99980.31;;;11.01;84.89
40612;BME280;26317;44.894;20.286;2023-04-26T01:09:21;99951.09;;;10.76;84.50
40612;BME280;26317;44.894;20.286;2023-04-26T01:11:57;99974.31;;;10.86;85.20
40612;BME280;26317;44.894;20.286;2023-04-26T01:14:30;99989.31;;;10.87;85.11
40612;BME280;26317;44.894;20.286;2023-04-26T01:17:09;99997.09;;;10.88;84.82
40612;BME280;26317;44.894;20.286;2023-04-26T01:19:47;100006.66;;;10.94;84.33
40612;BME280;26317;44.894;20.286;2023-04-26T01:22:19;100014.94;;;10.98;84.11
40612;BME280;26317;44.894;20.286;2023-04-26T01:25:03;100014.53;;;10.86;85.00
40612;BME280;26317;44.894;20.286;2023-04-26T01:27:42;100022.84;;;10.89;85.30
40612;BME280;26317;44.894;20.286;2023-04-26T01:30:23;100015.94;;;10.83;85.13
40612;BME280;26317;44.894;20.286;2023-04-26T01:33:05;100033.00;;;10.92;85.22
40612;BME280;26317;44.894;20.286;2023-04-26T01:35:45;100028.22;;;10.89;85.52
40612;BME280;26317;44.894;20.286;2023-04-26T01:38:22;100034.06;;;10.91;85.44
40612;BME280;26317;44.894;20.286;2023-04-26T01:41:10;100044.75;;;10.96;85.75
40612;BME280;26317;44.894;20.286;2023-04-26T01:43:49;100036.34;;;11.03;85.42
40612;BME280;26317;44.894;20.286;2023-04-26T01:46:20;100042.31;;;11.00;85.59
40612;BME280;26317;44.894;20.286;2023-04-26T01:48:58;100047.84;;;11.08;85.41
40612;BME280;26317;44.894;20.286;2023-04-26T01:51:30;100049.50;;;11.04;86.24
40612;BME280;26317;44.894;20.286;2023-04-26T01:54:17;100045.53;;;11.02;85.74
40612;BME280;26317;44.894;20.286;2023-04-26T01:57:03;100044.00;;;10.67;88.10
40612;BME280;26317;44.894;20.286;2023-04-26T01:59:50;100043.88;;;10.48;89.38
40612;BME280;26317;44.894;20.286;2023-04-26T02:02:34;100040.50;;;10.38;89.11
40612;BME280;26317;44.894;20.286;2023-04-26T02:05:09;100028.34;;;10.11;90.20
40612;BME280;26317;44.894;20.286;2023-04-26T02:07:46;100038.47;;;10.25;89.44
40612;BME280;26317;44.894;20.286;2023-04-26T02:10:22;100054.75;;;10.33;88.92
40612;BME280;26317;44.894;20.286;2023-04-26T02:13:06;100053.78;;;10.19;89.84
40612;BME280;26317;44.894;20.286;2023-04-26T02:15:48;100048.97;;;10.16;90.01
40612;BME280;26317;44.894;20.286;2023-04-26T02:18:20;100056.19;;;10.21;90.29
40612;BME280;26317;44.894;20.286;2023-04-26T02:20:53;100056.72;;;10.23;89.68
40612;BME280;26317;44.894;20.286;2023-04-26T02:23:28;100044.72;;;10.10;90.29
40612;BME280;26317;44.894;20.286;2023-04-26T02:26:09;100055.16;;;10.11;90.69
40612;BME280;26317;44.894;20.286;2023-04-26T02:28:47;100050.16;;;9.95;92.12
40612;BME280;26317;44.894;20.286;2023-04-26T02:31:22;100042.38;;;9.98;92.32
40612;BME280;26317;44.894;20.286;2023-04-26T02:34:02;100045.50;;;10.10;91.32
40612;BME280;26317;44.894;20.286;2023-04-26T02:36:36;100038.22;;;10.21;90.99
40612;BME280;26317;44.894;20.286;2023-04-26T02:39:13;100041.06;;;10.35;90.56
40612;BME280;26317;44.894;20.286;2023-04-26T02:41:50;100025.59;;;10.27;90.37
40612;BME280;26317;44.894;20.286;2023-04-26T02:44:42;100050.41;;;10.37;89.97
40612;BME280;26317;44.894;20.286;2023-04-26T02:47:21;100062.44;;;10.40;90.12
40612;BME280;26317;44.894;20.286;2023-04-26T02:49:56;100066.91;;;10.21;91.07
40612;BME280;26317;44.894;20.286;2023-04-26T02:52:33;100067.47;;;10.18;91.73
40612;BME280;26317;44.894;20.286;2023-04-26T02:55:07;100069.03;;;10.19;91.80
40612;BME280;26317;44.894;20.286;2023-04-26T02:57:41;100074.41;;;10.19;92.25
40612;BME280;26317;44.894;20.286;2023-04-26T03:00:23;100068.28;;;10.18;92.66
40612;BME280;26317;44.894;20.286;2023-04-26T03:03:03;100079.19;;;10.27;92.25
40612;BME280;26317;44.894;20.286;2023-04-26T03:05:43;100075.50;;;10.12;93.24
40612;BME280;26317;44.894;20.286;2023-04-26T03:08:22;100076.59;;;10.17;92.89
40612;BME280;26317;44.894;20.286;2023-04-26T03:11:01;100082.47;;;10.13;92.93
40612;BME280;26317;44.894;20.286;2023-04-26T03:13:37;100086.22;;;10.12;92.75
40612;BME280;26317;44.894;20.286;2023-04-26T03:16:28;100092.66;;;10.11;92.66
40612;BME280;26317;44.894;20.286;2023-04-26T03:19:04;100099.63;;;10.18;92.60
40612;BME280;26317;44.894;20.286;2023-04-26T03:21:39;100087.88;;;10.03;92.71
40612;BME280;26317;44.894;20.286;2023-04-26T03:24:16;100111.97;;;10.13;92.27
40612;BME280;26317;44.894;20.286;2023-04-26T03:26:53;100114.41;;;10.05;92.25
40612;BME280;26317;44.894;20.286;2023-04-26T03:29:31;100115.84;;;9.87;92.67
40612;BME280;26317;44.894;20.286;2023-04-26T03:32:05;100114.00;;;9.83;92.22
40612;BME280;26317;44.894;20.286;2023-04-26T03:34:41;100124.22;;;9.76;91.96
40612;BME280;26317;44.894;20.286;2023-04-26T03:37:21;100125.53;;;9.78;91.44
40612;BME280;26317;44.894;20.286;2023-04-26T03:40:02;100133.56;;;9.78;91.22
40612;BME280;26317;44.894;20.286;2023-04-26T03:42:48;100128.75;;;9.80;89.96
40612;BME280;26317;44.894;20.286;2023-04-26T03:45:24;100127.97;;;9.75;89.70
40612;BME280;26317;44.894;20.286;2023-04-26T03:48:05;100139.97;;;9.82;89.82
40612;BME280;26317;44.894;20.286;2023-04-26T03:50:40;100131.72;;;9.68;89.31
40612;BME280;26317;44.894;20.286;2023-04-26T03:53:13;100153.91;;;9.84;89.51
40612;BME280;26317;44.894;20.286;2023-04-26T03:55:49;100161.72;;;9.76;89.69
40612;BME280;26317;44.894;20.286;2023-04-26T03:58:29;100158.78;;;9.67;89.81
40612;BME280;26317;44.894;20.286;2023-04-26T04:01:09;100167.94;;;9.56;90.28
40612;BME280;26317;44.894;20.286;2023-04-26T04:04:02;100161.50;;;9.52;90.48
40612;BME280;26317;44.894;20.286;2023-04-26T04:06:51;100164.22;;;9.47;90.25
40612;BME280;26317;44.894;20.286;2023-04-26T04:09:27;100155.38;;;9.51;90.71
40612;BME280;26317;44.894;20.286;2023-04-26T04:12:11;100168.44;;;9.63;90.36
40612;BME280;26317;44.894;20.286;2023-04-26T04:14:45;100178.91;;;9.59;89.91
40612;BME280;26317;44.894;20.286;2023-04-26T04:17:21;100180.25;;;9.52;90.33
40612;BME280;26317;44.894;20.286;2023-04-26T04:20:14;100182.66;;;9.53;91.12
40612;BME280;26317;44.894;20.286;2023-04-26T04:22:57;100188.28;;;9.52;90.77
40612;BME280;26317;44.894;20.286;2023-04-26T04:25:36;100188.81;;;9.54;91.58
40612;BME280;26317;44.894;20.286;2023-04-26T04:28:18;100197.91;;;9.58;91.17
40612;BME280;26317;44.894;20.286;2023-04-26T04:30:53;100198.72;;;9.58;91.06
40612;BME280;26317;44.894;20.286;2023-04-26T04:33:28;100201.63;;;9.67;90.89
40612;BME280;26317;44.894;20.286;2023-04-26T04:36:10;100201.09;;;9.65;90.64
40612;BME280;26317;44.894;20.286;2023-04-26T04:38:47;100212.88;;;9.69;90.67
40612;BME280;26317;44.894;20.286;2023-04-26T04:41:22;100206.75;;;9.58;91.31
40612;BME280;26317;44.894;20.286;2023-04-26T04:43:55;100185.09;;;9.40;92.15
40612;BME280;26317;44.894;20.286;2023-04-26T04:46:28;100220.94;;;9.64;92.18
40612;BME280;26317;44.894;20.286;2023-04-26T04:49:06;100224.38;;;9.69;92.13
40612;BME280;26317;44.894;20.286;2023-04-26T04:51:44;100221.69;;;9.69;91.56
40612;BME280;26317;44.894;20.286;2023-04-26T04:54:21;100228.91;;;9.74;92.31
40612;BME280;26317;44.894;20.286;2023-04-26T04:56:59;100234.03;;;9.70;92.07
40612;BME280;26317;44.894;20.286;2023-04-26T04:59:33;100233.75;;;9.72;91.54
40612;BME280;26317;44.894;20.286;2023-04-26T05:02:05;100237.00;;;9.64;91.88
40612;BME280;26317;44.894;20.286;2023-04-26T05:04:53;100244.47;;;9.72;90.94
40612;BME280;26317;44.894;20.286;2023-04-26T05:07:26;100234.84;;;9.66;91.26
40612;BME280;26317;44.894;20.286;2023-04-26T05:10:03;100251.41;;;9.78;91.65
40612;BME280;26317;44.894;20.286;2023-04-26T05:12:40;100249.28;;;9.80;91.65
40612;BME280;26317;44.894;20.286;2023-04-26T05:15:30;100248.19;;;9.81;91.03
40612;BME280;26317;44.894;20.286;2023-04-26T05:18:08;100237.81;;;9.59;91.79
40612;BME280;26317;44.894;20.286;2023-04-26T05:20:52;100275.25;;;9.80;90.81
40612;BME280;26317;44.894;20.286;2023-04-26T05:23:30;100279.25;;;9.82;91.66
40612;BME280;26317;44.894;20.286;2023-04-26T05:26:06;100277.63;;;9.81;92.22
40612;BME280;26317;44.894;20.286;2023-04-26T05:28:54;100281.13;;;9.87;92.21
40612;BME280;26317;44.894;20.286;2023-04-26T05:31:56;100271.78;;;9.79;92.28
40612;BME280;26317;44.894;20.286;2023-04-26T05:34:53;100262.38;;;9.82;91.17
40612;BME280;26317;44.894;20.286;2023-04-26T05:37:30;100285.16;;;9.89;91.20
40612;BME280;26317;44.894;20.286;2023-04-26T05:40:15;100286.72;;;9.90;91.09
40612;BME280;26317;44.894;20.286;2023-04-26T05:42:48;100285.16;;;9.89;91.93
40612;BME280;26317;44.894;20.286;2023-04-26T05:45:28;100295.31;;;9.77;92.07
40612;BME280;26317;44.894;20.286;2023-04-26T05:48:05;100288.38;;;9.76;91.94
40612;BME280;26317;44.894;20.286;2023-04-26T05:50:43;100254.94;;;9.63;91.84
40612;BME280;26317;44.894;20.286;2023-04-26T05:53:23;100287.28;;;9.87;92.05
40612;BME280;26317;44.894;20.286;2023-04-26T05:56:01;100296.94;;;9.83;91.59
40612;BME280;26317;44.894;20.286;2023-04-26T05:58:38;100293.69;;;9.96;91.35
40612;BME280;26317;44.894;20.286;2023-04-26T06:01:19;100300.66;;;9.92;91.38
40612;BME280;26317;44.894;20.286;2023-04-26T06:04:03;100314.06;;;9.97;91.28
40612;BME280;26317;44.894;20.286;2023-04-26T06:06:52;100304.66;;;9.95;91.54
40612;BME280;26317;44.894;20.286;2023-04-26T06:09:23;100321.56;;;9.90;91.94
40612;BME280;26317;44.894;20.286;2023-04-26T06:12:01;100313.78;;;9.94;93.13
40612;BME280;26317;44.894;20.286;2023-04-26T06:14:41;100317.50;;;10.03;92.59
40612;BME280;26317;44.894;20.286;2023-04-26T06:17:22;100316.69;;;10.02;92.72
40612;BME280;26317;44.894;20.286;2023-04-26T06:20:03;100317.50;;;10.03;94.34
40612;BME280;26317;44.894;20.286;2023-04-26T06:22:39;100322.06;;;10.07;93.28
40612;BME280;26317;44.894;20.286;2023-04-26T06:25:14;100329.03;;;10.08;94.76
40612;BME280;26317;44.894;20.286;2023-04-26T06:27:55;100308.16;;;10.00;95.23
40612;BME280;26317;44.894;20.286;2023-04-26T06:30:31;100315.38;;;9.95;94.93
40612;BME280;26317;44.894;20.286;2023-04-26T06:33:08;100330.09;;;10.12;95.57
40612;BME280;26317;44.894;20.286;2023-04-26T06:35:48;100330.63;;;10.09;96.00
40612;BME280;26317;44.894;20.286;2023-04-26T06:38:25;100340.56;;;10.09;96.15
40612;BME280;26317;44.894;20.286;2023-04-26T06:41:03;100337.59;;;10.15;95.35
40612;BME280;26317;44.894;20.286;2023-04-26T06:43:46;100339.22;;;10.22;95.14
40612;BME280;26317;44.894;20.286;2023-04-26T06:46:34;100326.34;;;9.98;93.93
40612;BME280;26317;44.894;20.286;2023-04-26T06:49:10;100342.44;;;10.03;94.64
40612;BME280;26317;44.894;20.286;2023-04-26T06:51:47;100349.13;;;10.06;94.96
40612;BME280;26317;44.894;20.286;2023-04-26T06:54:31;100341.91;;;10.01;94.98
40612;BME280;26317;44.894;20.286;2023-04-26T06:57:21;100343.47;;;10.12;94.25
40612;BME280;26317;44.894;20.286;2023-04-26T06:59:59;100331.47;;;10.00;94.00
40612;BME280;26317;44.894;20.286;2023-04-26T07:02:35;100361.72;;;10.26;92.72
40612;BME280;26317;44.894;20.286;2023-04-26T07:05:13;100370.56;;;10.26;91.44
40612;BME280;26317;44.894;20.286;2023-04-26T07:07:51;100361.72;;;10.21;91.64
40612;BME280;26317;44.894;20.286;2023-04-26T07:10:32;100360.59;;;10.32;92.00
40612;BME280;26317;44.894;20.286;2023-04-26T07:13:06;100366.75;;;10.47;93.05
40612;BME280;26317;44.894;20.286;2023-04-26T07:15:49;100365.63;;;10.58;90.65
40612;BME280;26317;44.894;20.286;2023-04-26T07:18:26;100354.88;;;10.58;90.89
40612;BME280;26317;44.894;20.286;2023-04-26T07:21:03;100369.88;;;10.65;89.68
40612;BME280;26317;44.894;20.286;2023-04-26T07:23:43;100376.59;;;10.62;88.77
40612;BME280;26317;44.894;20.286;2023-04-26T07:26:27;100384.88;;;10.71;87.92
40612;BME280;26317;44.894;20.286;2023-04-26T07:29:09;100378.72;;;10.65;89.17
40612;BME280;26317;44.894;20.286;2023-04-26T07:31:49;100394.75;;;10.80;89.49
40612;BME280;26317;44.894;20.286;2023-04-26T07:34:28;100393.66;;;10.81;89.51
40612;BME280;26317;44.894;20.286;2023-04-26T07:37:06;100401.69;;;10.86;88.80
40612;BME280;26317;44.894;20.286;2023-04-26T07:39:41;100404.34;;;10.91;88.68
40612;BME280;26317;44.894;20.286;2023-04-26T07:42:15;100404.84;;;10.98;88.32
40612;BME280;26317;44.894;20.286;2023-04-26T07:45:02;100403.84;;;10.89;87.68
40612;BME280;26317;44.894;20.286;2023-04-26T07:47:42;100402.47;;;10.97;88.12
40612;BME280;26317;44.894;20.286;2023-04-26T07:50:18;100407.47;;;11.14;86.80
40612;BME280;26317;44.894;20.286;2023-04-26T07:52:55;100411.72;;;11.20;85.62
40612;BME280;26317;44.894;20.286;2023-04-26T07:55:51;100417.59;;;11.27;86.25
40612;BME280;26317;44.894;20.286;2023-04-26T07:58:40;100391.28;;;11.24;84.72
40612;BME280;26317;44.894;20.286;2023-04-26T08:01:15;100423.31;;;11.54;84.65
40612;BME280;26317;44.894;20.286;2023-04-26T08:03:59;100423.84;;;11.56;82.76
40612;BME280;26317;44.894;20.286;2023-04-26T08:06:36;100418.97;;;11.58;83.09
40612;BME280;26317;44.894;20.286;2023-04-26T08:09:14;100414.75;;;11.52;82.80
40612;BME280;26317;44.894;20.286;2023-04-26T08:11:49;100420.56;;;11.64;82.78
40612;BME280;26317;44.894;20.286;2023-04-26T08:14:24;100426.41;;;11.71;82.42
40612;BME280;26317;44.894;20.286;2023-04-26T08:17:03;100426.88;;;11.83;82.42
40612;BME280;26317;44.894;20.286;2023-04-26T08:19:44;100399.81;;;12.04;81.88
40612;BME280;26317;44.894;20.286;2023-04-26T08:22:16;100431.75;;;12.39;77.38
40612;BME280;26317;44.894;20.286;2023-04-26T08:24:49;100419.88;;;12.40;78.24
40612;BME280;26317;44.894;20.286;2023-04-26T08:27:22;100422.53;;;12.45;76.72
40612;BME280;26317;44.894;20.286;2023-04-26T08:29:56;100425.97;;;12.74;77.64
40612;BME280;26317;44.894;20.286;2023-04-26T08:32:28;100438.06;;;12.77;76.51
40612;BME280;26317;44.894;20.286;2023-04-26T08:35:14;100438.56;;;12.79;75.77
40612;BME280;26317;44.894;20.286;2023-04-26T08:37:54;100415.22;;;12.51;76.44
40612;BME280;26317;44.894;20.286;2023-04-26T08:40:26;100440.03;;;12.66;76.08
40612;BME280;26317;44.894;20.286;2023-04-26T08:43:00;100427.97;;;12.64;75.91
40612;BME280;26317;44.894;20.286;2023-04-26T08:45:34;100449.78;;;12.62;77.02
40612;BME280;26317;44.894;20.286;2023-04-26T08:48:26;100448.44;;;12.65;75.95
40612;BME280;26317;44.894;20.286;2023-04-26T08:51:04;100448.66;;;12.68;76.45
40612;BME280;26317;44.894;20.286;2023-04-26T08:53:44;100454.59;;;12.89;76.75
40612;BME280;26317;44.894;20.286;2023-04-26T08:56:27;100444.06;;;12.69;75.17
40612;BME280;26317;44.894;20.286;2023-04-26T08:59:06;100454.88;;;12.87;74.82
40612;BME280;26317;44.894;20.286;2023-04-26T09:01:45;100466.03;;;13.00;74.95
40612;BME280;26317;44.894;20.286;2023-04-26T09:04:20;100464.94;;;13.01;73.63
40612;BME280;26317;44.894;20.286;2023-04-26T09:07:01;100461.09;;;13.07;71.82
40612;BME280;26317;44.894;20.286;2023-04-26T09:09:40;100459.97;;;13.13;72.48
40612;BME280;26317;44.894;20.286;2023-04-26T09:12:19;100453.88;;;13.26;73.11
40612;BME280;26317;44.894;20.286;2023-04-26T09:14:57;100454.75;;;13.21;73.76
40612;BME280;26317;44.894;20.286;2023-04-26T09:17:50;100465.91;;;13.33;73.46
40612;BME280;26317;44.894;20.286;2023-04-26T09:20:32;100453.72;;;13.36;72.91
40612;BME280;26317;44.894;20.286;2023-04-26T09:23:13;100467.44;;;13.40;72.43
40612;BME280;26317;44.894;20.286;2023-04-26T09:25:52;100467.50;;;13.34;72.38
40612;BME280;26317;44.894;20.286;2023-04-26T09:28:27;100465.97;;;13.47;70.58
40612;BME280;26317;44.894;20.286;2023-04-26T09:31:05;100465.31;;;13.55;70.39
40612;BME280;26317;44.894;20.286;2023-04-26T09:33:59;100436.63;;;13.46;70.10
40612;BME280;26317;44.894;20.286;2023-04-26T09:36:47;100470.25;;;13.67;68.73
40612;BME280;26317;44.894;20.286;2023-04-26T09:39:35;100463.25;;;13.85;68.77
40612;BME280;26317;44.894;20.286;2023-04-26T09:42:17;100449.34;;;13.77;68.35
40612;BME280;26317;44.894;20.286;2023-04-26T09:45:07;100402.38;;;13.65;68.22
40612;BME280;26317;44.894;20.286;2023-04-26T09:47:53;100453.00;;;14.00;67.88
40612;BME280;26317;44.894;20.286;2023-04-26T09:50:30;100464.59;;;14.01;67.21
40612;BME280;26317;44.894;20.286;2023-04-26T09:53:11;100458.94;;;13.83;67.08
40612;BME280;26317;44.894;20.286;2023-04-26T09:55:52;100474.19;;;13.74;68.82
40612;BME280;26317;44.894;20.286;2023-04-26T09:58:29;100465.81;;;13.57;68.81
40612;BME280;26317;44.894;20.286;2023-04-26T10:01:13;100457.06;;;13.65;67.39
40612;BME280;26317;44.894;20.286;2023-04-26T10:03:55;100457.56;;;13.86;66.55
40612;BME280;26317;44.894;20.286;2023-04-26T10:06:31;100455.16;;;13.85;64.74
40612;BME280;26317;44.894;20.286;2023-04-26T10:09:08;100428.47;;;14.02;64.11
40612;BME280;26317;44.894;20.286;2023-04-26T10:11:42;100455.88;;;14.22;61.79
40612;BME280;26317;44.894;20.286;2023-04-26T10:14:14;100452.94;;;14.38;61.56
40612;BME280;26317;44.894;20.286;2023-04-26T10:16:52;100452.28;;;14.27;57.94
40612;BME280;26317;44.894;20.286;2023-04-26T10:19:41;100448.25;;;14.43;58.96
40612;BME280;26317;44.894;20.286;2023-04-26T10:22:21;100455.75;;;14.60;58.83
40612;BME280;26317;44.894;20.286;2023-04-26T10:25:08;100435.97;;;14.64;57.71
40612;BME280;26317;44.894;20.286;2023-04-26T10:28:06;100457.66;;;14.59;57.21
40612;BME280;26317;44.894;20.286;2023-04-26T10:30:54;100457.38;;;14.61;59.13
40612;BME280;26317;44.894;20.286;2023-04-26T10:33:37;100460.75;;;14.53;53.37
40612;BME280;26317;44.894;20.286;2023-04-26T10:36:16;100428.94;;;14.36;54.32
40612;BME280;26317;44.894;20.286;2023-04-26T10:42:21;100453.16;;;14.55;55.57
40612;BME280;26317;44.894;20.286;2023-04-26T10:45:03;100425.34;;;14.41;56.49
40612;BME280;26317;44.894;20.286;2023-04-26T10:48:15;100433.47;;;14.68;56.98
40612;BME280;26317;44.894;20.286;2023-04-26T10:51:13;100435.97;;;14.64;56.78
40612;BME280;26317;44.894;20.286;2023-04-26T10:54:04;100435.16;;;14.50;56.91
40612;BME280;26317;44.894;20.286;2023-04-26T10:56:56;100437.25;;;14.67;56.56
40612;BME280;26317;44.894;20.286;2023-04-26T10:59:30;100435.28;;;14.72;55.12
40612;BME280;26317;44.894;20.286;2023-04-26T11:02:51;100419.38;;;14.85;54.42
40612;BME280;26317;44.894;20.286;2023-04-26T11:05:38;100426.53;;;15.03;55.11
40612;BME280;26317;44.894;20.286;2023-04-26T11:08:17;100418.81;;;15.24;51.50
40612;BME280;26317;44.894;20.286;2023-04-26T11:11:04;100417.94;;;15.50;50.18
40612;BME280;26317;44.894;20.286;2023-04-26T11:13:40;100419.91;;;15.58;49.97
40612;BME280;26317;44.894;20.286;2023-04-26T11:16:18;100421.22;;;15.61;49.65
40612;BME280;26317;44.894;20.286;2023-04-26T11:18:57;100412.13;;;15.43;49.27
40612;BME280;26317;44.894;20.286;2023-04-26T11:21:35;100418.63;;;15.42;48.16
40612;BME280;26317;44.894;20.286;2023-04-26T11:24:07;100400.19;;;15.58;43.18
40612;BME280;26317;44.894;20.286;2023-04-26T11:26:54;100412.31;;;15.60;43.02
40612;BME280;26317;44.894;20.286;2023-04-26T11:29:31;100409.41;;;15.57;44.15
40612;BME280;26317;44.894;20.286;2023-04-26T11:32:07;100386.19;;;15.42;42.71
40612;BME280;26317;44.894;20.286;2023-04-26T11:34:51;100408.16;;;15.63;43.90
40612;BME280;26317;44.894;20.286;2023-04-26T11:37:23;100402.03;;;15.71;42.76
40612;BME280;26317;44.894;20.286;2023-04-26T11:39:58;100403.94;;;15.71;41.08
40612;BME280;26317;44.894;20.286;2023-04-26T11:42:31;100413.66;;;15.72;39.17
40612;BME280;26317;44.894;20.286;2023-04-26T11:45:06;100411.19;;;15.84;39.95
40612;BME280;26317;44.894;20.286;2023-04-26T11:47:45;100424.69;;;15.84;38.52
40612;BME280;26317;44.894;20.286;2023-04-26T11:50:24;100411.44;;;15.74;37.51
40612;BME280;26317;44.894;20.286;2023-04-26T11:53:00;100416.34;;;15.72;37.88
40612;BME280;26317;44.894;20.286;2023-04-26T11:55:36;100423.19;;;15.69;36.69
40612;BME280;26317;44.894;20.286;2023-04-26T11:58:22;100421.13;;;15.75;37.87
40612;BME280;26317;44.894;20.286;2023-04-26T12:01:02;100422.75;;;15.76;37.66
40612;BME280;26317;44.894;20.286;2023-04-26T12:03:38;100395.63;;;15.67;38.54
40612;BME280;26317;44.894;20.286;2023-04-26T12:06:28;100418.66;;;15.87;38.49
40612;BME280;26317;44.894;20.286;2023-04-26T12:09:05;100416.66;;;15.92;39.29
40612;BME280;26317;44.894;20.286;2023-04-26T12:11:47;100407.84;;;15.87;39.52
40612;BME280;26317;44.894;20.286;2023-04-26T12:14:32;100429.59;;;16.04;37.86
40612;BME280;26317;44.894;20.286;2023-04-26T12:17:09;100431.50;;;16.03;37.35
40612;BME280;26317;44.894;20.286;2023-04-26T12:19:51;100433.13;;;15.82;37.28
40612;BME280;26317;44.894;20.286;2023-04-26T12:22:37;100426.00;;;15.86;36.68
40612;BME280;26317;44.894;20.286;2023-04-26T12:25:12;100425.44;;;15.98;37.19
40612;BME280;26317;44.894;20.286;2023-04-26T12:27:47;100442.41;;;15.90;36.70
40612;BME280;26317;44.894;20.286;2023-04-26T12:30:22;100437.38;;;15.75;35.92
40612;BME280;26317;44.894;20.286;2023-04-26T12:33:05;100430.38;;;15.74;39.09
40612;BME280;26317;44.894;20.286;2023-04-26T12:35:50;100429.44;;;15.78;37.30
40612;BME280;26317;44.894;20.286;2023-04-26T12:38:33;100432.06;;;15.92;36.41
40612;BME280;26317;44.894;20.286;2023-04-26T12:41:07;100416.28;;;15.85;36.44
40612;BME280;26317;44.894;20.286;2023-04-26T12:43:45;100396.16;;;16.00;36.92
40612;BME280;26317;44.894;20.286;2023-04-26T12:46:23;100399.19;;;16.29;38.84
40612;BME280;26317;44.894;20.286;2023-04-26T12:49:03;100432.53;;;16.16;39.80
40612;BME280;26317;44.894;20.286;2023-04-26T12:51:37;100427.94;;;16.47;39.81
40612;BME280;26317;44.894;20.286;2023-04-26T12:54:32;100420.09;;;16.77;37.67
40612;BME280;26317;44.894;20.286;2023-04-26T12:57:08;100418.53;;;16.93;37.17
40612;BME280;26317;44.894;20.286;2023-04-26T12:59:59;100433.63;;;16.77;37.04
40612;BME280;26317;44.894;20.286;2023-04-26T13:02:30;100423.59;;;16.69;36.99
40612;BME280;26317;44.894;20.286;2023-04-26T13:05:05;100429.00;;;16.69;37.57
40612;BME280;26317;44.894;20.286;2023-04-26T13:07:45;100438.00;;;16.55;36.46
40612;BME280;26317;44.894;20.286;2023-04-26T13:10:20;100433.34;;;16.47;37.10
40612;BME280;26317;44.894;20.286;2023-04-26T13:12:58;100441.06;;;16.63;36.73
40612;BME280;26317;44.894;20.286;2023-04-26T13:15:31;100427.72;;;16.75;35.48
40612;BME280;26317;44.894;20.286;2023-04-26T13:18:19;100449.31;;;16.58;35.72
40612;BME280;26317;44.894;20.286;2023-04-26T13:20:56;100433.22;;;16.52;34.91
40612;BME280;26317;44.894;20.286;2023-04-26T13:23:34;100443.38;;;16.47;35.07
40612;BME280;26317;44.894;20.286;2023-04-26T13:26:07;100432.63;;;16.33;34.99
40612;BME280;26317;44.894;20.286;2023-04-26T13:28:48;100439.97;;;16.64;35.58
40612;BME280;26317;44.894;20.286;2023-04-26T13:31:26;100445.50;;;16.59;35.43
40612;BME280;26317;44.894;20.286;2023-04-26T13:34:02;100425.78;;;16.67;34.09
40612;BME280;26317;44.894;20.286;2023-04-26T13:36:38;100439.38;;;16.75;33.54
40612;BME280;26317;44.894;20.286;2023-04-26T13:39:12;100444.31;;;16.73;32.56
40612;BME280;26317;44.894;20.286;2023-04-26T13:41:52;100437.03;;;16.99;32.97
40612;BME280;26317;44.894;20.286;2023-04-26T13:44:29;100436.75;;;17.18;32.82
40612;BME280;26317;44.894;20.286;2023-04-26T13:47:10;100430.91;;;16.68;33.16
40612;BME280;26317;44.894;20.286;2023-04-26T13:49:47;100451.31;;;16.74;33.41
40612;BME280;26317;44.894;20.286;2023-04-26T13:52:23;100454.66;;;16.71;32.24